sensor_id;sensor_type;location;lat;lon;timestamp;pressure;altitude;pressure_sealevel;temperature;humidity
22862;BME280;11598;50.652;6.172;2022-08-19T00:01:58;96344.69;;;14.32;94.30
22862;BME280;11598;50.652;6.172;2022-08-19T00:11:59;96337.28;;;14.27;94.58
22862;BME280;11598;50.652;6.172;2022-08-19T00:21:59;96340.03;;;14.26;94.75
22862;BME280;11598;50.652;6.172;2022-08-19T00:31:59;96347.75;;;14.17;94.96
22862;BME280;11598;50.652;6.172;2022-08-19T00:42:00;96341.16;;;13.84;95.26
22862;BME280;11598;50.652;6.172;2022-08-19T00:52:09;96335.66;;;13.78;95.56
22862;BME280;11598;50.652;6.172;2022-08-19T01:02:12;96339.66;;;13.72;95.70
22862;BME280;11598;50.652;6.172;2022-08-19T01:12:12;96340.59;;;13.61;95.88
22862;BME280;11598;50.652;6.172;2022-08-19T01:22:25;96341.69;;;13.49;96.07
22862;BME280;11598;50.652;6.172;2022-08-19T01:32:27;96337.00;;;13.43;96.13
22862;BME280;11598;50.652;6.172;2022-08-19T01:42:27;96331.78;;;13.43;96.74
22862;BME280;11598;50.652;6.172;2022-08-19T01:52:27;96324.38;;;13.48;97.25
22862;BME280;11598;50.652;6.172;2022-08-19T02:02:28;96320.69;;;13.60;97.74
22862;BME280;11598;50.652;6.172;2022-08-19T02:12:28;96322.19;;;13.72;98.81
22862;BME280;11598;50.652;6.172;2022-08-19T02:22:29;96321.38;;;13.82;99.33
22862;BME280;11598;50.652;6.172;2022-08-19T02:32:29;96313.69;;;13.90;99.86
22862;BME280;11598;50.652;6.172;2022-08-19T02:42:30;96324.13;;;13.90;100.00
22862;BME280;11598;50.652;6.172;2022-08-19T02:52:33;96334.72;;;13.88;100.00
22862;BME280;11598;50.652;6.172;2022-08-19T03:02:34;96328.38;;;13.81;100.00
22862;BME280;11598;50.652;6.172;2022-08-19T03:12:36;96328.22;;;13.73;100.00
22862;BME280;11598;50.652;6.172;2022-08-19T03:22:37;96342.94;;;13.64;100.00
22862;BME280;11598;50.652;6.172;2022-08-19T03:32:38;96345.81;;;13.61;100.00
22862;BME280;11598;50.652;6.172;2022-08-19T03:42:38;96345.00;;;13.61;100.00
22862;BME280;11598;50.652;6.172;2022-08-19T03:52:41;96328.09;;;13.65;100.00
22862;BME280;11598;50.652;6.172;2022-08-19T04:02:42;96338.41;;;13.76;100.00
22862;BME280;11598;50.652;6.172;2022-08-19T04:12:43;96335.66;;;13.87;100.00
22862;BME280;11598;50.652;6.172;2022-08-19T04:22:44;96340.31;;;14.03;100.00
22862;BME280;11598;50.652;6.172;2022-08-19T04:32:44;96344.44;;;14.15;100.00
22862;BME280;11598;50.652;6.172;2022-08-19T04:42:44;96345.66;;;14.31;100.00
22862;BME280;11598;50.652;6.172;2022-08-19T04:52:45;96353.22;;;14.53;100.00
22862;BME280;11598;50.652;6.172;2022-08-19T05:02:45;96368.06;;;14.72;100.00
22862;BME280;11598;50.652;6.172;2022-08-19T05:12:45;96385.06;;;14.86;100.00
22862;BME280;11598;50.652;6.172;2022-08-19T05:22:46;96399.75;;;14.97;100.00
22862;BME280;11598;50.652;6.172;2022-08-19T05:32:47;96401.25;;;14.99;100.00
22862;BME280;11598;50.652;6.172;2022-08-19T05:42:47;96397.22;;;14.77;100.00
22862;BME280;11598;50.652;6.172;2022-08-19T05:52:49;96383.06;;;14.70;100.00
22862;BME280;11598;50.652;6.172;2022-08-19T06:02:50;96392.00;;;14.68;100.00
22862;BME280;11598;50.652;6.172;2022-08-19T06:12:51;96398.84;;;14.78;100.00
22862;BME280;11598;50.652;6.172;2022-08-19T06:22:51;96387.44;;;15.44;100.00
22862;BME280;11598;50.652;6.172;2022-08-19T06:32:52;96392.94;;;15.97;100.00
22862;BME280;11598;50.652;6.172;2022-08-19T06:42:52;96408.06;;;16.03;99.24
22862;BME280;11598;50.652;6.172;2022-08-19T06:52:53;96412.25;;;16.14;99.06
22862;BME280;11598;50.652;6.172;2022-08-19T07:02:54;96415.16;;;16.90;96.87
22862;BME280;11598;50.652;6.172;2022-08-19T07:12:54;96421.41;;;18.01;92.49
22862;BME280;11598;50.652;6.172;2022-08-19T07:22:55;96430.94;;;18.02;90.62
22862;BME280;11598;50.652;6.172;2022-08-19T07:32:55;96439.53;;;18.61;88.98
22862;BME280;11598;50.652;6.172;2022-08-19T07:42:56;96449.72;;;19.21;84.36
22862;BME280;11598;50.652;6.172;2022-08-19T07:52:56;96456.22;;;19.42;82.21
22862;BME280;11598;50.652;6.172;2022-08-19T08:02:57;96450.09;;;19.97;80.34
22862;BME280;11598;50.652;6.172;2022-08-19T08:12:57;96459.94;;;20.35;77.60
22862;BME280;11598;50.652;6.172;2022-08-19T08:22:58;96461.88;;;20.64;76.31
22862;BME280;11598;50.652;6.172;2022-08-19T08:33:18;96477.47;;;20.51;75.79
22862;BME280;11598;50.652;6.172;2022-08-19T08:53:24;96487.75;;;19.75;77.07
22862;BME280;11598;50.652;6.172;2022-08-19T09:03:26;96485.94;;;19.83;77.47
22862;BME280;11598;50.652;6.172;2022-08-19T09:23:37;96478.16;;;20.21;75.33
22862;BME280;11598;50.652;6.172;2022-08-19T09:33:37;96481.56;;;20.30;74.96
22862;BME280;11598;50.652;6.172;2022-08-19T09:43:38;96486.22;;;19.97;75.27
22862;BME280;11598;50.652;6.172;2022-08-19T09:53:38;96485.78;;;19.77;76.03
22862;BME280;11598;50.652;6.172;2022-08-19T10:03:39;96486.53;;;19.94;76.19
22862;BME280;11598;50.652;6.172;2022-08-19T10:13:39;96483.16;;;20.39;73.93
22862;BME280;11598;50.652;6.172;2022-08-19T10:23:42;96489.72;;;20.43;73.18
22862;BME280;11598;50.652;6.172;2022-08-19T10:33:47;96477.56;;;20.88;70.48
22862;BME280;11598;50.652;6.172;2022-08-19T10:43:50;96476.88;;;21.24;69.39
22862;BME280;11598;50.652;6.172;2022-08-19T10:53:55;96466.84;;;21.94;66.81
22862;BME280;11598;50.652;6.172;2022-08-19T11:03:56;96455.13;;;22.18;63.73
22862;BME280;11598;50.652;6.172;2022-08-19T11:13:57;96459.06;;;22.07;64.81
22862;BME280;11598;50.652;6.172;2022-08-19T11:24:01;96455.78;;;22.05;63.69
22862;BME280;11598;50.652;6.172;2022-08-19T11:34:04;96460.50;;;21.59;65.93
22862;BME280;11598;50.652;6.172;2022-08-19T11:44:06;96456.25;;;21.43;65.91
22862;BME280;11598;50.652;6.172;2022-08-19T11:54:10;96441.28;;;21.65;65.46
22862;BME280;11598;50.652;6.172;2022-08-19T12:04:11;96446.72;;;21.63;65.03
22862;BME280;11598;50.652;6.172;2022-08-19T12:14:12;96459.25;;;21.55;64.97
22862;BME280;11598;50.652;6.172;2022-08-19T12:24:14;96453.19;;;21.31;65.39
22862;BME280;11598;50.652;6.172;2022-08-19T12:34:14;96442.72;;;21.67;64.29
22862;BME280;11598;50.652;6.172;2022-08-19T12:44:14;96426.22;;;21.65;64.25
22862;BME280;11598;50.652;6.172;2022-08-19T12:54:15;96427.50;;;21.40;63.78
22862;BME280;11598;50.652;6.172;2022-08-19T13:04:15;96422.59;;;22.03;62.04
22862;BME280;11598;50.652;6.172;2022-08-19T13:14:16;96436.09;;;22.44;60.81
22862;BME280;11598;50.652;6.172;2022-08-19T13:24:17;96440.09;;;22.62;60.79
22862;BME280;11598;50.652;6.172;2022-08-19T13:34:24;96432.69;;;22.72;60.89
22862;BME280;11598;50.652;6.172;2022-08-19T13:44:26;96419.06;;;22.53;61.04
22862;BME280;11598;50.652;6.172;2022-08-19T13:54:29;96430.34;;;22.41;62.14
22862;BME280;11598;50.652;6.172;2022-08-19T14:04:30;96431.38;;;22.40;61.86
22862;BME280;11598;50.652;6.172;2022-08-19T14:24:37;96424.31;;;22.10;63.09
22862;BME280;11598;50.652;6.172;2022-08-19T14:34:39;96421.19;;;22.22;63.59
22862;BME280;11598;50.652;6.172;2022-08-19T14:44:40;96409.09;;;22.34;64.27
22862;BME280;11598;50.652;6.172;2022-08-19T14:54:41;96421.28;;;22.28;65.54
22862;BME280;11598;50.652;6.172;2022-08-19T15:04:41;96408.63;;;22.09;66.26
22862;BME280;11598;50.652;6.172;2022-08-19T15:14:41;96419.53;;;21.99;66.95
22862;BME280;11598;50.652;6.172;2022-08-19T15:24:44;96432.53;;;22.15;66.82
22862;BME280;11598;50.652;6.172;2022-08-19T15:34:46;96447.00;;;22.20;67.39
22862;BME280;11598;50.652;6.172;2022-08-19T15:44:48;96442.22;;;22.08;68.46
22862;BME280;11598;50.652;6.172;2022-08-19T15:54:49;96455.72;;;21.99;68.25
22862;BME280;11598;50.652;6.172;2022-08-19T16:04:51;96448.63;;;21.84;68.99
22862;BME280;11598;50.652;6.172;2022-08-19T16:15:11;96446.53;;;21.80;68.72
22862;BME280;11598;50.652;6.172;2022-08-19T16:25:13;96450.03;;;21.65;68.94
22862;BME280;11598;50.652;6.172;2022-08-19T16:35:13;96454.59;;;21.57;69.21
22862;BME280;11598;50.652;6.172;2022-08-19T16:45:14;96455.16;;;21.52;68.67
22862;BME280;11598;50.652;6.172;2022-08-19T16:55:14;96459.06;;;21.41;69.12
22862;BME280;11598;50.652;6.172;2022-08-19T17:05:16;96452.56;;;21.29;70.00
22862;BME280;11598;50.652;6.172;2022-08-19T17:15:16;96449.06;;;21.14;70.60
22862;BME280;11598;50.652;6.172;2022-08-19T17:25:16;96443.13;;;20.97;70.97
22862;BME280;11598;50.652;6.172;2022-08-19T17:35:17;96431.69;;;20.66;71.38
22862;BME280;11598;50.652;6.172;2022-08-19T17:45:19;96439.81;;;20.34;72.76
22862;BME280;11598;50.652;6.172;2022-08-19T17:55:21;96438.66;;;20.13;73.99
22862;BME280;11598;50.652;6.172;2022-08-19T18:05:27;96463.09;;;19.99;74.58
22862;BME280;11598;50.652;6.172;2022-08-19T18:15:31;96462.19;;;19.83;75.52
22862;BME280;11598;50.652;6.172;2022-08-19T18:25:32;96479.88;;;19.67;77.29
22862;BME280;11598;50.652;6.172;2022-08-19T18:35:32;96496.13;;;19.06;81.88
22862;BME280;11598;50.652;6.172;2022-08-19T18:45:32;96510.22;;;18.40;86.00
22862;BME280;11598;50.652;6.172;2022-08-19T18:55:51;96524.19;;;17.55;90.92
22862;BME280;11598;50.652;6.172;2022-08-19T19:05:55;96525.13;;;17.20;94.81
22862;BME280;11598;50.652;6.172;2022-08-19T19:15:55;96524.00;;;17.04;96.95
22862;BME280;11598;50.652;6.172;2022-08-19T19:25:56;96535.28;;;16.97;98.52
22862;BME280;11598;50.652;6.172;2022-08-19T19:35:56;96543.75;;;16.90;99.72
22862;BME280;11598;50.652;6.172;2022-08-19T19:45:57;96550.28;;;16.86;100.00
22862;BME280;11598;50.652;6.172;2022-08-19T19:55:58;96547.81;;;16.85;100.00
22862;BME280;11598;50.652;6.172;2022-08-19T20:05:58;96560.56;;;16.80;100.00
22862;BME280;11598;50.652;6.172;2022-08-19T20:15:59;96554.50;;;16.79;100.00
22862;BME280;11598;50.652;6.172;2022-08-19T20:26:02;96552.28;;;16.75;100.00
22862;BME280;11598;50.652;6.172;2022-08-19T20:36:05;96559.75;;;16.69;100.00
22862;BME280;11598;50.652;6.172;2022-08-19T20:46:06;96562.56;;;16.68;100.00
22862;BME280;11598;50.652;6.172;2022-08-19T20:56:06;96562.84;;;16.65;100.00
22862;BME280;11598;50.652;6.172;2022-08-19T21:06:08;96554.81;;;16.66;100.00
22862;BME280;11598;50.652;6.172;2022-08-19T21:16:09;96548.22;;;16.62;100.00
22862;BME280;11598;50.652;6.172;2022-08-19T21:26:10;96547.72;;;16.59;100.00
22862;BME280;11598;50.652;6.172;2022-08-19T21:36:10;96548.53;;;16.59;100.00
22862;BME280;11598;50.652;6.172;2022-08-19T21:46:11;96542.16;;;16.62;100.00
22862;BME280;11598;50.652;6.172;2022-08-19T21:56:11;96546.44;;;16.63;100.00
22862;BME280;11598;50.652;6.172;2022-08-19T22:06:11;96553.47;;;16.62;100.00
22862;BME280;11598;50.652;6.172;2022-08-19T22:16:12;96558.72;;;16.62;100.00
22862;BME280;11598;50.652;6.172;2022-08-19T22:26:15;96559.25;;;16.66;100.00
22862;BME280;11598;50.652;6.172;2022-08-19T22:36:16;96558.13;;;16.68;100.00
22862;BME280;11598;50.652;6.172;2022-08-19T22:46:16;96552.06;;;16.68;100.00
22862;BME280;11598;50.652;6.172;2022-08-19T22:56:18;96549.56;;;16.66;100.00
22862;BME280;11598;50.652;6.172;2022-08-19T23:06:18;96560.06;;;16.66;100.00
22862;BME280;11598;50.652;6.172;2022-08-19T23:16:18;96554.97;;;16.65;100.00
22862;BME280;11598;50.652;6.172;2022-08-19T23:26:20;96549.72;;;16.65;100.00
22862;BME280;11598;50.652;6.172;2022-08-19T23:36:21;96554.97;;;16.65;100.00
22862;BME280;11598;50.652;6.172;2022-08-19T23:46:22;96544.63;;;16.63;100.00
22862;BME280;11598;50.652;6.172;2022-08-19T23:56:22;96546.59;;;16.61;100.00
